createdAt,value
2019-05-13T05:01:55.367Z,87.10
2019-05-13T05:04:30.592Z,88.60
2019-05-13T05:07:26.400Z,88.50
2019-05-13T05:10:26.392Z,86.50
2019-05-13T05:13:12.636Z,87.70
2019-05-13T05:15:52.325Z,87.40
2019-05-13T05:19:01.775Z,87.30
2019-05-13T05:21:55.082Z,84.90
2019-05-13T05:24:43.101Z,84.50
2019-05-13T05:27:31.689Z,84.90
2019-05-13T05:30:24.404Z,84.10
2019-05-13T05:33:11.346Z,85.50
2019-05-13T05:35:55.770Z,85.30
2019-05-13T05:38:28.801Z,84.20
2019-05-13T05:41:01.745Z,83.80
2019-05-13T05:43:35.657Z,84.90
2019-05-13T05:46:06.627Z,84.80
2019-05-13T05:48:39.067Z,83.20
2019-05-13T05:51:13.064Z,84.60
2019-05-13T05:53:44.155Z,84.30
2019-05-13T05:56:17.415Z,83.10
2019-05-13T05:58:49.206Z,81.90
2019-05-13T06:01:23.370Z,82.10
2019-05-13T06:03:56.629Z,81.70
2019-05-13T06:06:28.191Z,82.70
2019-05-13T06:08:58.221Z,81.60
2019-05-13T06:11:28.237Z,82.60
2019-05-13T06:13:58.442Z,82.90
2019-05-13T06:16:28.441Z,82.30
2019-05-13T06:18:58.400Z,82.00
2019-05-13T06:21:28.477Z,80.20
2019-05-13T06:23:58.429Z,80.20
2019-05-13T06:26:28.506Z,79.10
2019-05-13T06:28:58.452Z,80.00
2019-05-13T06:31:32.049Z,78.50
2019-05-13T06:34:02.098Z,79.70
2019-05-13T06:36:32.146Z,78.30
2019-05-13T06:39:02.536Z,77.30
2019-05-13T06:41:33.554Z,76.30
2019-05-13T06:44:05.232Z,76.90
2019-05-13T06:46:35.661Z,76.70
2019-05-13T06:49:05.721Z,76.30
2019-05-13T06:51:35.690Z,75.50
2019-05-13T06:54:05.701Z,75.30
2019-05-13T06:56:35.696Z,74.70
2019-05-13T06:59:06.942Z,74.70
2019-05-13T07:01:36.918Z,74.60
2019-05-13T07:04:06.897Z,73.60
2019-05-13T07:06:36.849Z,73.40
2019-05-13T07:09:07.319Z,73.40
2019-05-13T07:11:37.306Z,72.30
2019-05-13T07:14:07.300Z,73.10
2019-05-13T07:16:37.256Z,71.60
2019-05-13T07:19:07.271Z,71.00
2019-05-13T07:21:37.242Z,71.30
2019-05-13T07:24:07.259Z,69.40
2019-05-13T07:26:37.219Z,71.00
2019-05-13T07:29:07.808Z,69.40
2019-05-13T07:31:38.155Z,70.20
2019-05-13T07:34:08.134Z,67.10
2019-05-13T07:36:38.308Z,65.30
2019-05-13T07:39:11.790Z,65.40
2019-05-13T07:41:43.028Z,64.20
2019-05-13T07:44:12.793Z,62.90
2019-05-13T07:46:42.953Z,62.40
2019-05-13T07:49:13.947Z,62.20
2019-05-13T07:51:43.909Z,62.00
2019-05-13T07:54:13.883Z,59.90
2019-05-13T07:56:43.846Z,59.00
2019-05-13T07:59:13.823Z,56.90
2019-05-13T08:01:43.806Z,57.40
2019-05-13T08:04:22.231Z,56.50
2019-05-13T08:06:45.350Z,55.80
2019-05-13T08:09:15.373Z,53.10
2019-05-13T08:12:02.363Z,52.60
2019-05-13T08:14:18.085Z,49.70
2019-05-13T08:16:48.094Z,49.50
2019-05-13T08:19:18.051Z,48.40
2019-05-13T08:21:48.038Z,50.10
2019-05-13T08:24:17.992Z,48.70
2019-05-13T08:26:52.428Z,49.60
2019-05-13T08:29:21.655Z,50.70
2019-05-13T08:31:51.963Z,51.00
2019-05-13T08:34:22.700Z,47.00
2019-05-13T08:36:52.882Z,46.80
2019-05-13T08:39:26.883Z,45.50
2019-05-13T08:41:54.560Z,44.00
2019-05-13T08:44:24.606Z,44.10
2019-05-13T08:46:56.262Z,44.80
2019-05-13T08:49:26.283Z,44.80
2019-05-13T08:51:56.284Z,44.70
2019-05-13T08:54:26.226Z,43.60
2019-05-13T08:56:56.193Z,43.50
2019-05-13T08:59:26.165Z,42.00
2019-05-13T09:01:56.314Z,41.00
2019-05-13T09:04:26.357Z,39.20
2019-05-13T09:06:56.382Z,40.80
2019-05-13T09:09:26.374Z,40.20
2019-05-13T09:11:56.329Z,41.20
2019-05-13T09:14:26.749Z,40.80
2019-05-13T09:16:56.705Z,41.80
2019-05-13T09:19:26.665Z,42.70
2019-05-13T09:21:56.644Z,42.90
2019-05-13T09:24:34.128Z,43.20
2019-05-13T09:26:58.210Z,43.90
2019-05-13T09:29:28.174Z,42.90
2019-05-13T09:31:58.179Z,41.20
2019-05-13T09:34:29.104Z,41.00
2019-05-13T09:36:59.080Z,40.30
2019-05-13T09:39:29.118Z,41.10
2019-05-13T09:41:59.106Z,41.80
2019-05-13T09:44:29.079Z,43.10
2019-05-13T09:46:59.041Z,42.30
2019-05-13T09:49:29.054Z,41.50
2019-05-13T09:52:01.441Z,41.40
2019-05-13T09:54:32.531Z,39.80
2019-05-13T09:57:02.518Z,37.80
2019-05-13T09:59:32.525Z,36.00
2019-05-13T10:02:03.290Z,33.50
2019-05-13T10:04:33.571Z,34.80
2019-05-13T10:07:03.565Z,35.40
2019-05-13T10:09:33.530Z,38.00
2019-05-13T10:12:03.721Z,39.60
2019-05-13T10:14:33.742Z,39.50
2019-05-13T10:17:06.380Z,41.30
2019-05-13T10:19:35.364Z,40.20
2019-05-13T10:22:05.443Z,38.00
2019-05-13T10:24:35.730Z,35.50
2019-05-13T10:27:05.914Z,34.40
2019-05-13T10:29:36.133Z,34.00
2019-05-13T10:32:06.910Z,34.30
2019-05-13T10:34:37.332Z,34.20
2019-05-13T10:37:07.329Z,34.50
2019-05-13T10:39:37.281Z,32.40
2019-05-13T10:42:07.284Z,31.30
2019-05-13T10:44:37.237Z,32.50
2019-05-13T10:47:07.208Z,33.70
2019-05-13T10:49:37.295Z,34.50
2019-05-13T10:52:07.288Z,31.60
2019-05-13T10:54:37.289Z,30.70
2019-05-13T10:57:07.366Z,28.40
2019-05-13T10:59:37.356Z,29.00
2019-05-13T11:02:07.463Z,31.80
2019-05-13T11:04:37.432Z,31.60
2019-05-13T11:07:07.429Z,30.30
2019-05-13T11:09:37.455Z,28.90
2019-05-13T11:12:08.012Z,29.10
2019-05-13T11:14:37.999Z,28.70
2019-05-13T11:17:08.334Z,28.30
2019-05-13T11:19:38.298Z,27.50
2019-05-13T11:22:08.361Z,28.20
2019-05-13T11:24:38.464Z,29.10
2019-05-13T11:27:08.449Z,26.00
2019-05-13T11:29:38.429Z,24.30
2019-05-13T11:32:08.606Z,24.40
2019-05-13T11:34:38.557Z,22.50
2019-05-13T11:37:08.542Z,20.00
2019-05-13T11:39:38.512Z,19.40
2019-05-13T11:42:08.556Z,21.00
2019-05-13T11:44:38.518Z,18.80
2019-05-13T11:47:08.714Z,22.90
2019-05-13T11:49:38.691Z,22.60
2019-05-13T11:52:08.649Z,23.80
2019-05-13T11:54:38.632Z,24.30
2019-05-13T11:57:08.610Z,24.20
2019-05-13T11:59:38.645Z,25.50
2019-05-13T12:02:13.237Z,26.90
2019-05-13T12:04:43.187Z,27.20
2019-05-13T12:07:13.675Z,28.60
2019-05-13T12:09:43.726Z,29.60
2019-05-13T12:12:14.041Z,29.00
2019-05-13T12:15:17.789Z,29.70
2019-05-13T12:17:15.907Z,29.60
2019-05-13T12:19:45.873Z,29.80
2019-05-13T12:22:15.938Z,30.10
2019-05-13T12:24:45.925Z,30.80
2019-05-13T12:27:16.021Z,31.90
2019-05-13T12:29:45.977Z,33.50
2019-05-13T12:32:15.994Z,35.60
2019-05-13T12:34:46.212Z,36.50
2019-05-13T12:37:16.365Z,37.10
2019-05-13T12:39:46.334Z,38.00
2019-05-13T12:42:16.709Z,38.50
2019-05-13T12:45:00.409Z,39.20
2019-05-13T12:47:18.330Z,38.80
2019-05-13T12:49:48.297Z,38.00
2019-05-13T12:52:18.313Z,37.20
2019-05-13T12:54:48.268Z,36.60
2019-05-13T12:57:18.281Z,36.90
2019-05-13T12:59:48.272Z,37.00
2019-05-13T13:02:18.251Z,36.60
2019-05-13T13:05:09.135Z,37.00
2019-05-13T13:07:21.602Z,37.00
2019-05-13T13:09:53.513Z,36.10
2019-05-13T13:12:33.718Z,35.40
2019-05-13T13:14:55.535Z,34.50
2019-05-13T13:17:25.602Z,35.00
2019-05-13T13:20:04.673Z,35.10
2019-05-13T13:22:27.452Z,33.10
2019-05-13T13:24:57.867Z,31.60
2019-05-13T13:28:02.068Z,31.80
2019-05-13T13:30:04.385Z,29.80
2019-05-13T13:32:33.285Z,30.00
2019-05-13T13:35:04.387Z,29.70
2019-05-13T13:40:06.873Z,29.90
2019-05-13T13:42:36.922Z,30.80
2019-05-13T13:45:08.403Z,30.60
2019-05-13T13:47:38.447Z,30.20
2019-05-13T13:50:11.173Z,30.80
2019-05-13T13:52:45.683Z,29.80
2019-05-13T13:55:15.928Z,28.80
2019-05-13T13:57:45.306Z,28.90
2019-05-13T14:00:32.613Z,29.60
2019-05-13T14:02:47.524Z,30.10
2019-05-13T14:05:17.861Z,30.10
2019-05-13T14:07:14.039Z,30.20
2019-05-13T14:07:47.935Z,31.30
2019-05-13T14:10:21.960Z,32.10
2019-05-13T14:12:52.491Z,32.10
2019-05-13T14:15:22.629Z,32.40
2019-05-13T14:17:52.625Z,33.20
2019-05-13T14:20:22.578Z,33.30
2019-05-13T14:22:57.712Z,34.00
2019-05-13T14:25:24.187Z,35.10
2019-05-13T14:27:54.225Z,34.80
2019-05-13T14:30:24.253Z,35.80
2019-05-13T14:32:54.593Z,36.00
2019-05-13T14:35:24.575Z,36.40
2019-05-13T14:37:55.060Z,36.10
2019-05-13T14:40:25.037Z,36.70
2019-05-13T14:42:56.027Z,36.50
2019-05-13T14:45:26.556Z,37.10
2019-05-13T14:47:56.623Z,36.80
2019-05-13T14:50:26.610Z,35.70
2019-05-13T14:52:56.583Z,36.50
2019-05-13T14:55:26.906Z,36.40
2019-05-13T14:57:57.016Z,36.60
2019-05-13T15:00:27.223Z,35.90
2019-05-13T15:02:57.362Z,37.40
2019-05-13T15:05:27.469Z,36.20
2019-05-13T15:07:58.534Z,37.00
2019-05-13T15:10:31.476Z,36.90
2019-05-13T15:13:03.009Z,36.10
2019-05-13T15:15:33.701Z,37.00
2019-05-13T15:18:05.894Z,37.80
2019-05-13T15:20:38.036Z,37.10
2019-05-13T15:23:08.788Z,37.40
2019-05-13T15:25:41.855Z,37.00
2019-05-13T15:28:12.005Z,37.20
2019-05-13T15:30:42.503Z,37.60
2019-05-13T15:33:12.721Z,36.40
2019-05-13T15:35:43.251Z,36.30
2019-05-13T15:38:14.188Z,35.10
2019-05-13T15:40:44.717Z,34.50
2019-05-13T15:43:16.579Z,35.00
2019-05-13T15:45:47.207Z,34.90
2019-05-13T15:48:17.530Z,34.90
2019-05-13T15:50:51.156Z,34.70
2019-05-13T15:53:22.375Z,34.10
2019-05-13T15:55:55.503Z,33.40
2019-05-13T15:58:38.935Z,32.00
2019-05-13T16:01:02.572Z,32.30
2019-05-13T16:03:32.375Z,32.10
2019-05-13T16:06:02.909Z,32.30
2019-05-13T16:08:33.946Z,31.60
2019-05-13T16:11:04.364Z,32.80
2019-05-13T16:13:35.019Z,32.60
2019-05-13T16:16:07.066Z,33.30
2019-05-13T16:18:38.508Z,32.40
2019-05-13T16:21:08.935Z,33.30
2019-05-13T16:23:39.565Z,33.20
2019-05-13T16:26:12.378Z,33.20
2019-05-13T16:28:43.413Z,33.50
2019-05-13T16:31:15.672Z,34.00
2019-05-13T16:33:46.080Z,34.70
2019-05-13T16:36:16.712Z,34.90
2019-05-13T16:38:47.342Z,34.40
2019-05-13T16:41:18.279Z,34.20
2019-05-13T16:43:48.811Z,33.90
2019-05-13T16:46:21.419Z,33.00
2019-05-13T16:48:52.937Z,33.80
2019-05-13T16:51:23.669Z,33.70
2019-05-13T16:53:55.330Z,34.30
2019-05-13T16:56:30.225Z,34.20
2019-05-13T16:58:58.221Z,34.00
2019-05-13T17:01:30.287Z,34.20
2019-05-13T17:04:01.986Z,34.10
2019-05-13T17:06:32.777Z,33.40
2019-05-13T17:09:05.557Z,33.30
2019-05-13T17:11:36.187Z,34.10
2019-05-13T17:14:07.093Z,33.70
2019-05-13T17:16:41.374Z,34.60
2019-05-13T17:19:12.483Z,34.80
2019-05-13T17:21:44.342Z,34.40
2019-05-13T17:24:14.987Z,34.90
2019-05-13T17:26:45.505Z,35.10
2019-05-13T17:29:16.541Z,35.80
2019-05-13T17:31:48.398Z,36.70
2019-05-13T17:34:21.157Z,37.10
2019-05-13T17:36:54.679Z,37.30
2019-05-13T17:39:25.514Z,37.20
2019-05-13T17:41:56.349Z,37.20
2019-05-13T17:44:31.557Z,37.50
2019-05-13T17:47:01.918Z,38.80
2019-05-13T17:49:34.587Z,38.90
2019-05-13T17:52:08.086Z,39.00
2019-05-13T17:54:38.922Z,39.30
2019-05-13T17:57:12.366Z,39.30
2019-05-13T17:59:44.382Z,39.70
2019-05-13T18:02:15.059Z,40.00
2019-05-13T18:04:47.281Z,39.90
2019-05-13T18:07:18.013Z,40.00
2019-05-13T18:09:48.858Z,39.50
2019-05-13T18:12:22.141Z,39.70
2019-05-13T18:14:55.983Z,39.90
2019-05-13T18:17:26.896Z,39.80
2019-05-13T18:20:02.309Z,40.00
2019-05-13T18:22:34.291Z,40.30
2019-05-13T18:25:11.738Z,40.20
2019-05-13T18:27:41.706Z,40.70
2019-05-13T18:30:12.813Z,41.30
2019-05-13T18:32:46.237Z,41.20
2019-05-13T18:35:21.880Z,41.00
2019-05-13T18:37:52.510Z,41.40
2019-05-13T18:40:23.758Z,42.00
2019-05-13T18:42:54.593Z,42.70
2019-05-13T18:45:26.654Z,43.10
2019-05-13T18:47:59.071Z,43.50
2019-05-13T18:50:32.226Z,43.10
2019-05-13T18:53:04.587Z,44.20
2019-05-13T18:55:35.483Z,44.60
2019-05-13T18:58:08.718Z,44.60
2019-05-13T19:00:41.651Z,45.30
2019-05-13T19:03:18.044Z,46.10
2019-05-13T19:05:49.797Z,46.00
2019-05-13T19:08:21.703Z,47.20
2019-05-13T19:10:52.534Z,47.10
2019-05-13T19:13:24.787Z,48.30
2019-05-13T19:15:57.157Z,48.50
2019-05-13T19:18:29.022Z,48.80
2019-05-13T19:21:01.889Z,49.30
2019-05-13T19:23:33.144Z,50.10
2019-05-13T19:26:12.787Z,50.70
2019-05-13T19:28:45.669Z,50.60
2019-05-13T19:31:16.914Z,51.00
2019-05-13T19:33:49.154Z,51.10
2019-05-13T19:36:21.155Z,52.20
2019-05-13T19:38:51.981Z,51.30
2019-05-13T19:41:25.616Z,52.50
2019-05-13T19:43:56.824Z,52.20
2019-05-13T19:46:31.418Z,52.70
2019-05-13T19:49:02.389Z,52.70
2019-05-13T19:51:33.158Z,53.90
2019-05-13T19:54:04.099Z,53.80
2019-05-13T19:56:34.636Z,54.20
2019-05-13T19:59:05.525Z,55.10
2019-05-13T20:01:42.273Z,54.60
2019-05-13T20:04:12.622Z,55.20
2019-05-13T20:06:43.664Z,55.00
2019-05-13T20:09:15.929Z,55.80
2019-05-13T20:11:47.003Z,55.60
2019-05-13T20:14:17.912Z,55.50
2019-05-13T20:16:48.639Z,56.30
2019-05-13T20:19:19.376Z,56.60
2019-05-13T20:21:51.770Z,56.50
2019-05-13T20:24:23.751Z,57.20
2019-05-13T20:26:54.340Z,57.70
2019-05-13T20:29:25.995Z,58.30
2019-05-13T20:31:56.622Z,60.00
2019-05-13T20:34:27.356Z,61.40
2019-05-13T20:36:57.473Z,62.20
2019-05-13T20:39:28.210Z,62.20
2019-05-13T20:42:01.382Z,62.10
2019-05-13T20:44:31.391Z,62.50
2019-05-13T20:47:01.992Z,63.30
2019-05-13T20:49:34.109Z,63.90
2019-05-13T20:52:04.736Z,64.20
2019-05-13T20:54:35.162Z,63.40
2019-05-13T20:57:05.488Z,63.10
2019-05-13T20:59:35.605Z,63.30
2019-05-13T21:02:05.586Z,63.30
2019-05-13T21:04:35.546Z,64.20
2019-05-13T21:07:06.269Z,63.30
2019-05-13T21:09:36.386Z,63.90
2019-05-13T21:12:06.813Z,64.20
2019-05-13T21:14:41.186Z,63.30
2019-05-13T21:17:12.322Z,64.30
2019-05-13T21:19:43.110Z,64.10
2019-05-13T21:22:13.429Z,64.30
2019-05-13T21:24:43.650Z,65.60
2019-05-13T21:27:13.618Z,64.50
2019-05-13T21:29:43.576Z,64.00
